Time;durP1;ratioP1;P1;durP2;ratioP2;P2;SDS_P1;SDS_P2;PMS_P1;PMS_P2;Temp;Humidity;BMP_temperature;BMP_pressure;BME280_temperature;BME280_humidity;BME280_pressure;Samples;Min_cycle;Max_cycle;Signal;HPM_P1;HPM_P2
2021/04/25 04:24:12;;;;;;;18.73;14.27;;;9.40;88.40;;;;;;4964866;28;86773;-87
2021/04/25 04:54:04;;;;;;;15.43;13.38;;;9.40;90.30;;;;;;4967188;28;86818;-87
2021/04/25 05:00:17;;;;;;;17.45;15.68;;;9.50;89.40;;;;;;4964192;28;85956;-87
2021/04/25 05:06:25;;;;;;;24.50;22.55;;;9.60;88.00;;;;;;4964349;28;86815;-87
2021/04/25 05:08:51;;;;;;;22.85;20.67;;;;;;;;;;4943091;28;88698;-88
2021/04/25 05:11:18;;;;;;;21.10;19.10;;;;;;;;;;4949030;28;89941;-88
2021/04/25 05:13:44;;;;;;;22.88;20.65;;;;;;;;;;4967095;28;86630;-87
2021/04/25 05:16:10;;;;;;;18.10;16.52;;;;;;;;;;4949297;28;87367;-88
2021/04/25 05:18:38;;;;;;;14.45;13.13;;;;;;;;;;4967183;28;87588;-88
2021/04/25 05:21:05;;;;;;;18.33;16.65;;;;;;;;;;4966727;28;86832;-88
2021/04/25 05:23:31;;;;;;;21.33;19.42;;;;;;;;;;4967013;28;86730;-88
2021/04/25 05:25:57;;;;;;;21.95;20.25;;;;;;;;;;4966496;28;85525;-88
2021/04/25 05:28:23;;;;;;;23.20;21.27;;;;;;;;;;4966346;28;86868;-88
2021/04/25 05:34:14;;;;;;;25.75;23.58;;;9.80;81.20;;;;;;4963337;28;87802;-89
2021/04/25 05:36:40;;;;;;;33.13;30.85;;;10.00;80.30;;;;;;4966628;28;87111;-89
2021/04/25 05:39:06;;;;;;;32.05;29.95;;;10.10;79.70;;;;;;4965203;28;87568;-89
2021/04/25 05:41:32;;;;;;;23.60;21.52;;;;;;;;;;4966962;28;87716;-89
2021/04/25 05:43:58;;;;;;;24.05;21.90;;;;;;;;;;4950198;28;86877;-89
2021/04/25 05:46:24;;;;;;;21.55;19.67;;;10.30;77.50;;;;;;4967509;28;86886;-89
2021/04/25 05:48:50;;;;;;;24.63;22.80;;;;;;;;;;4967200;28;88936;-89
2021/04/25 05:51:17;;;;;;;26.88;24.67;;;10.50;74.50;;;;;;4950260;28;87773;-90
2021/04/25 05:53:43;;;;;;;29.05;26.70;;;;;;;;;;4950142;28;86744;-90
2021/04/25 05:56:09;;;;;;;25.70;24.05;;;;;;;;;;4968447;28;86734;-90
2021/04/25 05:58:36;;;;;;;22.98;21.50;;;;;;;;;;4948986;28;88675;-89
2021/04/25 06:01:06;;;;;;;21.88;20.17;;;10.60;74.70;;;;;;4949752;28;89910;-89
2021/04/25 06:03:33;;;;;;;22.65;20.83;;;10.70;73.90;;;;;;4967639;28;86821;-89
2021/04/25 06:05:59;;;;;;;19.63;18.10;;;;;;;;;;4950223;28;86771;-90
2021/04/25 06:08:25;;;;;;;31.77;29.77;;;;;;;;;;4966364;28;86980;-89
2021/04/25 06:10:51;;;;;;;31.38;29.17;;;;;;;;;;4967743;28;86829;-89
2021/04/25 06:13:17;;;;;;;33.70;31.67;;;;;;;;;;4967986;28;86686;-89
2021/04/25 06:15:43;;;;;;;29.98;27.85;;;;;;;;;;4951133;28;86397;-89
2021/04/25 06:18:11;;;;;;;27.98;25.88;;;11.00;74.30;;;;;;4968633;28;87794;-89
2021/04/25 06:23:59;;;;;;;49.35;46.40;;;11.10;74.40;;;;;;4964970;28;87355;-88
2021/04/25 06:26:25;;;;;;;53.03;50.10;;;;;;;;;;4968653;28;86828;-89
2021/04/25 06:32:13;;;;;;;46.25;43.58;;;;;;;;;;4964809;28;87035;-90
2021/04/25 06:34:39;;;;;;;39.83;37.45;;;;;;;;;;4969147;28;87029;-89
2021/04/25 06:37:05;;;;;;;37.03;34.72;;;;;;;;;;4951180;28;86891;-91
2021/04/25 06:39:40;;;;;;;47.67;44.85;;;11.80;71.50;;;;;;4950172;28;89309;-89
2021/04/25 06:42:06;;;;;;;50.20;47.28;;;;;;;;;;4967644;28;91090;-88
2021/04/25 06:44:33;;;;;;;39.47;37.05;;;;;;;;;;4967326;28;86725;-87
2021/04/25 06:46:59;;;;;;;22.20;20.40;;;;;;;;;;4968249;28;86689;-89
2021/04/25 07:08:23;;;;;;;18.00;16.42;;;12.90;64.50;;;;;;3168383;22;86901;-88
2021/04/25 07:10:53;;;;;;;18.77;16.95;;;13.20;64.20;;;;;;4953211;28;89116;-87
2021/04/25 07:13:20;;;;;;;20.00;18.50;;;;;;;;;;4969388;28;87062;-89
2021/04/25 07:15:48;;;;;;;18.50;16.65;;;;;;;;;;4971009;28;87435;-88
2021/04/25 07:18:14;;;;;;;18.73;17.23;;;;;;;;;;4982151;28;86462;-85
2021/04/25 07:20:40;;;;;;;19.40;17.88;;;13.30;64.60;;;;;;4985844;28;86873;-88
2021/04/25 07:26:29;;;;;;;21.13;19.63;;;;;;;;;;4976337;28;86565;-87
2021/04/25 07:28:54;;;;;;;15.88;14.38;;;13.40;62.00;;;;;;4982363;28;86978;-88
2021/04/25 07:31:20;;;;;;;19.25;17.60;;;;;;;;;;4979092;28;87325;-88
2021/04/25 07:33:46;;;;;;;20.27;18.88;;;13.90;62.80;;;;;;4962300;28;88924;-87
2021/04/25 07:36:12;;;;;;;23.58;21.98;;;15.00;62.80;;;;;;4974482;28;86687;-88
2021/04/25 07:42:00;;;;;;;82.43;78.43;;;16.80;60.10;;;;;;4968589;28;87781;-87
2021/04/25 07:44:26;;;;;;;66.85;63.55;;;17.10;56.30;;;;;;4973097;28;87991;-88
2021/04/25 07:46:52;;;;;;;51.65;48.63;;;20.10;50.90;;;;;;4973471;28;86904;-86
2021/04/25 07:49:18;;;;;;;120.93;115.22;;;19.90;49.60;;;;;;4971021;28;86842;-87
2021/04/25 07:55:10;;;;;;;21.77;20.17;;;22.90;40.80;;;;;;4965065;28;86747;-89
2021/04/25 07:57:37;;;;;;;32.60;30.40;;;24.10;38.60;;;;;;4951201;28;86762;-89
2021/04/25 08:03:25;;;;;;;20.70;19.10;;;26.90;38.90;;;;;;4944601;28;86857;-89
2021/04/25 08:05:51;;;;;;;35.95;33.75;;;26.80;34.70;;;;;;4948592;28;86966;-89
2021/04/25 08:08:17;;;;;;;31.75;29.58;;;;;;;;;;4947369;28;87651;-86
2021/04/25 08:10:45;;;;;;;42.30;40.05;;;;;;;;;;4948995;28;87095;-87
2021/04/25 08:16:34;;;;;;;56.70;53.92;;;30.90;29.60;;;;;;4944882;28;86810;-90
2021/04/25 08:22:22;;;;;;;61.60;58.60;;;31.80;28.30;;;;;;4948314;28;86580;-88
2021/04/25 08:24:47;;;;;;;115.38;110.28;;;32.00;28.60;;;;;;4931058;28;88297;-89
2021/04/25 08:27:13;;;;;;;80.30;76.55;;;32.80;28.20;;;;;;4930036;28;88603;-89
2021/04/25 08:29:39;;;;;;;88.97;84.72;;;33.50;27.90;;;;;;4947324;28;86786;-88
2021/04/25 08:32:05;;;;;;;153.05;146.57;;;34.10;27.40;;;;;;4947040;28;86906;-87
2021/04/25 08:37:54;;;;;;;31.35;29.35;;;35.70;26.20;;;;;;4945286;28;86858;-88
2021/04/25 08:40:21;;;;;;;80.22;76.45;;;36.60;26.00;;;;;;4947944;28;86935;-89
2021/04/25 08:42:47;;;;;;;75.68;71.82;;;36.60;25.80;;;;;;4929122;28;87163;-88
2021/04/25 08:48:35;;;;;;;151.60;145.35;;;37.40;24.60;;;;;;4943922;28;86681;-86
2021/04/25 08:51:02;;;;;;;108.93;104.05;;;36.50;25.50;;;;;;4945032;28;86809;-86
2021/04/25 08:53:27;;;;;;;55.20;52.40;;;37.10;25.30;;;;;;4947381;28;86359;-86
2021/04/25 08:55:53;;;;;;;139.18;133.18;;;37.60;25.00;;;;;;4946719;28;88287;-86
2021/04/25 08:58:21;;;;;;;68.32;65.07;;;37.90;24.70;;;;;;4946127;28;88279;-83
2021/04/25 09:00:48;;;;;;;58.47;55.38;;;37.90;24.30;;;;;;4946732;28;87665;-87
2021/04/25 09:06:56;;;;;;;212.38;203.65;;;38.80;24.10;;;;;;4944059;28;86721;-88
2021/04/25 09:09:22;;;;;;;118.95;113.70;;;39.30;23.70;;;;;;4946457;28;87242;-86
2021/04/25 09:11:49;;;;;;;183.63;175.30;;;39.60;24.00;;;;;;4946432;28;86829;-88
2021/04/25 09:14:16;;;;;;;119.13;113.85;;;39.80;24.00;;;;;;4946283;28;86895;-86
2021/04/25 09:16:47;;;;;;;71.13;67.68;;;39.40;23.00;;;;;;4946364;28;86761;-87
2021/04/25 09:19:14;;;;;;;143.93;137.75;;;39.40;23.50;;;;;;4930287;28;85984;-87
2021/04/25 09:21:57;;;;;;;93.32;89.00;;;39.40;23.40;;;;;;4946841;28;86812;-87
2021/04/25 09:24:28;;;;;;;60.13;56.97;;;39.70;23.60;;;;;;4947117;28;86518;-87
2021/04/25 09:26:54;;;;;;;26.55;24.88;;;40.30;23.60;;;;;;4946452;28;89352;-87
2021/04/25 09:29:22;;;;;;;52.85;50.15;;;40.50;23.30;;;;;;4946024;28;90428;-87
2021/04/25 09:31:50;;;;;;;46.88;44.47;;;40.30;22.80;;;;;;4946623;28;86719;-88
2021/04/25 09:34:27;;;;;;;143.35;137.07;;;40.30;23.10;;;;;;4946978;28;87017;-87
2021/04/25 09:36:54;;;;;;;118.13;112.90;;;40.70;22.90;;;;;;4949844;28;87625;-88
2021/04/25 09:39:20;;;;;;;247.10;237.10;;;41.00;22.50;;;;;;4949104;28;86758;-88
2021/04/25 09:41:47;;;;;;;268.55;257.75;;;40.20;22.70;;;;;;4949704;28;86697;-88
2021/04/25 09:44:48;;;;;;;106.32;101.45;;;41.10;22.90;;;;;;4949317;28;85988;-87
2021/04/25 09:50:35;;;;;;;200.45;191.63;;;41.10;22.80;;;;;;4887703;28;86921;-89
2021/04/25 09:53:02;;;;;;;208.32;199.23;;;;;;;;;;4889769;28;87855;-91
2021/04/25 09:59:02;;;;;;;53.47;50.65;;;40.90;22.60;;;;;;4947591;28;86712;-88
2021/04/25 10:01:42;;;;;;;60.08;56.70;;;41.30;22.40;;;;;;4946498;28;86931;-89
2021/04/25 10:04:36;;;;;;;51.53;48.60;;;41.40;21.80;;;;;;4945587;28;86707;-89
2021/04/25 10:07:08;;;;;;;54.05;51.03;;;40.40;22.20;;;;;;4945669;28;86811;-90
2021/04/25 10:09:35;;;;;;;45.90;43.28;;;40.60;22.80;;;;;;4925946;28;87375;-89
2021/04/25 10:12:03;;;;;;;46.17;43.40;;;40.60;22.40;;;;;;4926744;28;86780;-89
2021/04/25 10:14:30;;;;;;;54.83;52.00;;;40.30;22.50;;;;;;4928579;28;86731;-89
2021/04/25 10:20:38;;;;;;;68.05;64.45;;;41.60;22.70;;;;;;4922551;28;88036;-89
2021/04/25 10:26:28;;;;;;;97.43;93.00;;;42.90;22.20;;;;;;4863575;29;86795;-89
2021/04/25 10:31:35;;;;;;;64.88;61.65;;;43.20;22.00;;;;;;5034846;22;88592;-88
2021/04/25 10:34:07;;;;;;;81.07;76.93;;;43.30;22.40;;;;;;4906707;28;86872;-88
2021/04/25 10:36:48;;;;;;;137.88;131.98;;;43.30;22.40;;;;;;4927069;28;86738;-91
2021/04/25 10:44:24;;;;;;;47.20;44.50;;;44.20;22.10;;;;;;4958036;23;86578;-86
2021/04/25 10:46:53;;;;;;;158.80;152.30;;;44.30;22.50;;;;;;4922648;28;87658;-88
2021/04/25 10:49:36;;;;;;;163.30;156.35;;;43.90;22.40;;;;;;4938718;28;87143;-87
2021/04/25 10:52:22;;;;;;;133.15;127.47;;;44.20;22.50;;;;;;4948052;28;88450;-83
2021/04/25 10:55:13;;;;;;;274.20;262.45;;;44.70;22.20;;;;;;4948763;28;87093;-84
2021/04/25 10:57:51;;;;;;;303.15;289.75;;;44.60;22.30;;;;;;4939793;28;86937;-86
2021/04/25 11:02:57;;;;;;;134.55;128.27;;;45.30;22.40;;;;;;4943135;28;88561;-86
2021/04/25 11:05:35;;;;;;;244.75;234.55;;;45.30;22.20;;;;;;4948394;28;87112;-84
2021/04/25 11:08:05;;;;;;;239.88;230.20;;;45.40;21.70;;;;;;4945778;28;86917;-85
2021/04/25 11:10:47;;;;;;;205.15;196.98;;;44.20;22.20;;;;;;4946098;28;86810;-85
2021/04/25 11:13:40;;;;;;;168.80;161.38;;;44.70;22.90;;;;;;4946455;28;88484;-85
2021/04/25 11:16:13;;;;;;;241.00;231.18;;;44.50;22.00;;;;;;4926051;28;88813;-84
2021/04/25 11:18:43;;;;;;;202.95;194.52;;;44.70;21.90;;;;;;4933491;28;87500;-90
2021/04/25 11:21:40;;;;;;;108.70;103.85;;;44.90;21.80;;;;;;4947368;28;87165;-85
2021/04/25 11:24:09;;;;;;;115.82;110.60;;;43.90;21.80;;;;;;4937536;28;86723;-86
2021/04/25 11:29:17;;;;;;;135.13;129.47;;;43.20;22.20;;;;;;4945498;28;87005;-85
2021/04/25 11:31:52;;;;;;;93.05;88.95;;;43.40;22.10;;;;;;4942200;28;86293;-85
2021/04/25 11:34:32;;;;;;;131.48;125.22;;;43.80;22.30;;;;;;4941607;28;87719;-87
2021/04/25 11:37:45;;;;;;;70.38;66.97;;;43.90;22.20;;;;;;4949454;28;87294;-84
2021/04/25 11:40:12;;;;;;;90.13;85.43;;;44.00;22.70;;;;;;4952494;28;87800;-93
2021/04/25 11:42:47;;;;;;;67.15;63.75;;;44.10;22.50;;;;;;4948108;28;87044;-84
2021/04/25 11:45:21;;;;;;;47.30;44.50;;;43.90;22.10;;;;;;4947471;28;88080;-84
2021/04/25 11:47:58;;;;;;;49.10;46.42;;;44.00;21.70;;;;;;4944482;28;87064;-86
2021/04/25 11:50:29;;;;;;;47.78;45.13;;;43.80;21.90;;;;;;4946707;28;87006;-86
2021/04/25 11:52:55;;;;;;;48.55;45.75;;;43.80;22.00;;;;;;4947197;28;87122;-85
2021/04/25 11:55:21;;;;;;;63.70;60.55;;;43.30;22.40;;;;;;4930957;28;89808;-85
2021/04/25 11:57:51;;;;;;;47.72;45.03;;;42.40;22.20;;;;;;4937554;28;87174;-85
2021/04/25 12:00:28;;;;;;;44.22;41.53;;;42.90;22.30;;;;;;4946920;28;86965;-84
2021/04/25 12:02:59;;;;;;;48.90;46.22;;;42.90;21.90;;;;;;4951061;28;86854;-85
2021/04/25 12:05:39;;;;;;;44.75;42.30;;;42.40;22.40;;;;;;4931361;28;89087;-86
2021/04/25 12:08:06;;;;;;;86.22;82.20;;;42.90;22.10;;;;;;4945181;28;87242;-85
2021/04/25 12:10:44;;;;;;;76.03;72.32;;;42.70;21.90;;;;;;4947712;28;86778;-83
2021/04/25 12:13:15;;;;;;;92.25;88.03;;;43.20;22.20;;;;;;4923408;28;87041;-85
2021/04/25 12:15:51;;;;;;;107.68;102.82;;;43.50;21.60;;;;;;4942533;28;87512;-83
2021/04/25 12:18:22;;;;;;;66.68;63.25;;;43.00;21.60;;;;;;4956477;28;87511;-83
2021/04/25 12:21:30;;;;;;;62.30;58.90;;;43.00;21.80;;;;;;4931641;28;86872;-83
2021/04/25 12:23:58;;;;;;;88.35;84.38;;;43.20;21.70;;;;;;4949610;28;85882;-82
2021/04/25 12:26:25;;;;;;;103.97;99.00;;;42.60;21.60;;;;;;4947148;28;87590;-84
2021/04/25 12:28:54;;;;;;;178.13;170.52;;;42.70;21.90;;;;;;4936288;28;87051;-84
2021/04/25 12:31:22;;;;;;;94.80;90.33;;;42.70;21.70;;;;;;4947075;28;88248;-85
2021/04/25 12:33:51;;;;;;;98.28;93.88;;;42.40;21.00;;;;;;4948060;28;87509;-83
2021/04/25 12:36:19;;;;;;;95.13;90.65;;;42.10;21.00;;;;;;4946955;28;87435;-82
2021/04/25 12:38:56;;;;;;;186.15;178.25;;;42.40;21.40;;;;;;4944490;28;88079;-84
2021/04/25 12:41:23;;;;;;;52.85;50.25;;;42.40;21.50;;;;;;4947431;28;87053;-84
2021/04/25 12:43:49;;;;;;;67.80;64.22;;;42.30;20.70;;;;;;4937902;28;87034;-84
2021/04/25 12:46:28;;;;;;;79.65;75.80;;;42.30;20.70;;;;;;4943581;28;87825;-85
2021/04/25 12:48:56;;;;;;;100.65;96.05;;;41.80;20.30;;;;;;4950646;28;87922;-85
2021/04/25 12:51:24;;;;;;;66.07;62.67;;;41.00;20.80;;;;;;4946219;28;87015;-84
2021/04/25 12:53:50;;;;;;;67.95;64.63;;;40.70;21.00;;;;;;4947741;28;87047;-85
2021/04/25 12:56:36;;;;;;;65.38;62.15;;;40.50;21.10;;;;;;4946269;28;88635;-83
2021/04/25 12:59:05;;;;;;;61.75;58.83;;;40.10;20.70;;;;;;4945219;28;87955;-85
2021/04/25 13:01:41;;;;;;;78.70;74.88;;;39.40;21.10;;;;;;4947715;28;86958;-84
2021/04/25 13:04:35;;;;;;;92.10;88.00;;;39.40;21.10;;;;;;4949185;28;87141;-85
2021/04/25 13:07:16;;;;;;;63.50;60.20;;;39.60;21.30;;;;;;4946363;28;87006;-83
2021/04/25 13:10:05;;;;;;;69.88;66.60;;;39.30;22.00;;;;;;4947208;28;87565;-84
2021/04/25 13:12:43;;;;;;;61.08;58.13;;;38.80;21.90;;;;;;4948162;28;87113;-85
2021/04/25 13:15:30;;;;;;;99.10;94.60;;;38.30;21.90;;;;;;4941256;28;85927;-86
2021/04/25 13:18:02;;;;;;;164.38;157.30;;;38.00;22.20;;;;;;4958096;28;89121;-85
2021/04/25 13:20:38;;;;;;;158.90;152.10;;;38.00;22.40;;;;;;4944134;28;86933;-86
2021/04/25 13:23:09;;;;;;;93.13;88.85;;;38.00;22.20;;;;;;4951441;28;87859;-85
2021/04/25 13:25:40;;;;;;;72.70;69.00;;;38.00;22.70;;;;;;4954864;28;86612;-84
2021/04/25 13:28:07;;;;;;;74.55;71.00;;;37.90;22.70;;;;;;4951796;28;86716;-86
2021/04/25 13:30:37;;;;;;;81.13;77.07;;;37.90;22.90;;;;;;4941810;28;90491;-87
2021/04/25 13:33:03;;;;;;;;;;;37.70;23.00;;;;;;4960222;28;87052;-83
2021/04/25 13:35:29;;;;;;;75.78;72.20;;;37.20;23.70;;;;;;4941095;28;86891;-86
2021/04/25 13:37:57;;;;;;;61.20;58.00;;;37.20;23.60;;;;;;4960864;28;87155;-84
2021/04/25 13:40:24;;;;;;;63.10;59.90;;;37.30;23.90;;;;;;4965322;28;86994;-85
2021/04/25 13:42:50;;;;;;;68.05;64.47;;;37.20;23.60;;;;;;4974909;28;86938;-85
2021/04/25 13:45:16;;;;;;;55.78;52.75;;;36.70;23.50;;;;;;4949833;28;86979;-84
2021/04/25 13:47:42;;;;;;;58.30;55.10;;;36.50;23.80;;;;;;4947951;28;87994;-86
2021/04/25 13:50:08;;;;;;;51.17;48.30;;;36.40;23.90;;;;;;4952165;28;87252;-85
2021/04/25 13:52:36;;;;;;;41.97;39.53;;;36.00;24.10;;;;;;4926923;28;86882;-85
2021/04/25 13:55:07;;;;;;;40.92;38.60;;;35.90;24.30;;;;;;4948033;28;86926;-85
2021/04/25 13:57:33;;;;;;;39.85;37.33;;;35.70;24.50;;;;;;4948026;28;86873;-85
2021/04/25 13:59:58;;;;;;;50.83;48.33;;;35.50;23.60;;;;;;4948444;28;87287;-87
2021/04/25 14:02:24;;;;;;;128.10;122.40;;;35.10;24.60;;;;;;4947939;28;86938;-86
2021/04/25 14:04:51;;;;;;;118.32;112.93;;;34.70;25.20;;;;;;4948828;28;86623;-85
2021/04/25 14:07:17;;;;;;;115.25;110.35;;;34.70;24.70;;;;;;4945509;28;87936;-84
2021/04/25 14:09:42;;;;;;;82.25;78.25;;;34.40;24.40;;;;;;4949509;28;86668;-87
2021/04/25 14:12:08;;;;;;;65.18;61.70;;;34.40;24.70;;;;;;4954383;28;87558;-86
2021/04/25 14:14:34;;;;;;;122.68;117.05;;;34.10;24.70;;;;;;4958383;28;86678;-86
2021/04/25 14:17:00;;;;;;;167.98;160.68;;;33.80;24.80;;;;;;4958984;28;86720;-84
2021/04/25 14:19:26;;;;;;;152.10;145.50;;;33.60;25.00;;;;;;4960285;28;86583;-84
2021/04/25 14:21:53;;;;;;;112.60;107.70;;;33.60;25.00;;;;;;4948630;28;86969;-85
2021/04/25 14:24:22;;;;;;;84.20;80.22;;;33.60;25.30;;;;;;4953171;28;87116;-87
2021/04/25 14:26:51;;;;;;;71.00;67.60;;;33.40;25.50;;;;;;4959079;28;87300;-84
2021/04/25 14:29:18;;;;;;;80.72;76.97;;;33.10;25.30;;;;;;4962883;28;86985;-84
2021/04/25 14:31:43;;;;;;;75.32;71.68;;;32.80;25.40;;;;;;4951694;28;86930;-87
2021/04/25 14:34:10;;;;;;;90.32;85.93;;;32.50;25.70;;;;;;4946915;28;87082;-86
2021/04/25 14:36:36;;;;;;;80.70;76.80;;;32.10;25.60;;;;;;4928631;28;89827;-85
2021/04/25 14:39:05;;;;;;;105.70;100.63;;;31.90;25.60;;;;;;4956839;28;88510;-84
2021/04/25 14:41:31;;;;;;;116.03;110.45;;;31.60;25.50;;;;;;4926981;28;87024;-85
2021/04/25 14:43:58;;;;;;;64.13;61.03;;;31.20;25.90;;;;;;4945168;28;87133;-86
2021/04/25 14:46:24;;;;;;;61.22;58.13;;;30.90;26.60;;;;;;4946674;28;86893;-84
2021/04/25 14:48:50;;;;;;;56.22;53.22;;;30.80;26.50;;;;;;4945470;28;86963;-86
2021/04/25 14:51:15;;;;;;;60.28;57.15;;;30.80;26.20;;;;;;4928502;28;86916;-86
2021/04/25 14:53:42;;;;;;;57.15;54.05;;;30.70;25.60;;;;;;4948226;28;86524;-85
2021/04/25 14:56:08;;;;;;;66.95;63.47;;;30.50;25.60;;;;;;4947316;28;87700;-86
2021/04/25 14:58:34;;;;;;;57.70;54.70;;;30.10;26.10;;;;;;4930370;28;90811;-85
2021/04/25 15:01:00;;;;;;;57.35;54.33;;;29.70;25.60;;;;;;4948054;28;87619;-86
2021/04/25 15:03:26;;;;;;;72.65;69.22;;;29.20;26.60;;;;;;4948093;28;87034;-85
2021/04/25 15:05:52;;;;;;;95.80;91.40;;;28.90;26.70;;;;;;4946538;28;86705;-88
2021/04/25 15:08:18;;;;;;;81.40;77.70;;;28.80;26.70;;;;;;4946293;28;87335;-84
2021/04/25 15:10:45;;;;;;;80.50;76.80;;;28.70;26.90;;;;;;4947173;28;87213;-86
2021/04/25 15:13:11;;;;;;;87.80;83.70;;;28.40;27.20;;;;;;4948922;28;87099;-85
2021/04/25 15:15:37;;;;;;;118.05;112.72;;;28.10;27.30;;;;;;4948895;28;87268;-85
2021/04/25 15:18:07;;;;;;;101.28;96.60;;;27.90;27.40;;;;;;4949701;28;87708;-86
2021/04/25 15:20:35;;;;;;;169.38;162.07;;;27.70;27.60;;;;;;4946622;28;87111;-85
2021/04/25 15:23:01;;;;;;;198.70;190.40;;;27.60;27.70;;;;;;4946917;28;87031;-82
2021/04/25 15:25:27;;;;;;;266.73;255.80;;;27.40;27.50;;;;;;4948629;28;88279;-82
2021/04/25 15:27:56;;;;;;;233.02;222.73;;;27.10;27.60;;;;;;4947752;28;88040;-81
2021/04/25 15:30:25;;;;;;;142.82;136.45;;;26.90;27.80;;;;;;4947020;28;86978;-84
2021/04/25 15:32:51;;;;;;;131.48;125.63;;;26.80;28.10;;;;;;4945628;28;87299;-83
2021/04/25 15:35:17;;;;;;;65.20;62.00;;;26.60;28.20;;;;;;4946318;28;86941;-84
2021/04/25 15:37:49;;;;;;;53.03;50.10;;;26.60;28.30;;;;;;4943170;28;87666;-82
2021/04/25 15:40:17;;;;;;;50.47;47.97;;;26.20;28.40;;;;;;4927521;28;86751;-85
2021/04/25 15:42:44;;;;;;;83.75;79.82;;;25.90;28.40;;;;;;4944309;28;86341;-84
2021/04/25 15:45:16;;;;;;;70.05;66.68;;;25.60;28.90;;;;;;4939279;28;87052;-86
2021/04/25 15:47:42;;;;;;;64.97;61.70;;;25.40;29.10;;;;;;4945832;28;86970;-85
2021/04/25 15:50:08;;;;;;;46.55;44.13;;;25.30;29.50;;;;;;4936971;28;87840;-84
2021/04/25 15:52:34;;;;;;;60.38;57.55;;;25.20;29.70;;;;;;4940015;28;87034;-83
2021/04/25 15:55:01;;;;;;;44.90;42.40;;;25.20;29.90;;;;;;4936153;28;87408;-82
2021/04/25 15:57:27;;;;;;;37.72;35.63;;;25.00;30.00;;;;;;4939892;28;86992;-83
2021/04/25 15:59:53;;;;;;;45.80;43.15;;;24.90;30.00;;;;;;4942194;28;86703;-83
2021/04/25 16:02:19;;;;;;;86.45;82.40;;;24.80;30.00;;;;;;4951192;28;86673;-84
2021/04/25 16:04:45;;;;;;;80.05;76.05;;;24.70;30.40;;;;;;4937070;28;90181;-83
2021/04/25 16:07:13;;;;;;;57.30;54.60;;;24.50;30.50;;;;;;4952787;28;86251;-82
2021/04/25 16:09:39;;;;;;;44.92;42.42;;;24.30;30.70;;;;;;4946161;28;86749;-83
2021/04/25 16:12:05;;;;;;;43.58;41.33;;;24.10;31.00;;;;;;4947792;28;87012;-82
2021/04/25 16:14:31;;;;;;;54.45;51.72;;;23.90;30.40;;;;;;4946386;28;87497;-82
2021/04/25 16:16:57;;;;;;;51.60;49.13;;;23.80;30.80;;;;;;4947018;28;88302;-85
2021/04/25 16:19:22;;;;;;;43.58;41.20;;;23.70;31.20;;;;;;4949017;28;87341;-86
2021/04/25 16:21:49;;;;;;;73.55;70.10;;;23.50;31.00;;;;;;4948235;28;86990;-82
2021/04/25 16:24:15;;;;;;;93.18;88.90;;;23.40;31.30;;;;;;4911794;28;90552;-82
2021/04/25 16:26:40;;;;;;;80.75;77.07;;;23.20;31.90;;;;;;4943259;28;87010;-83
2021/04/25 16:29:06;;;;;;;51.90;49.13;;;23.10;31.70;;;;;;4950494;28;86990;-83
2021/04/25 16:31:32;;;;;;;34.95;32.97;;;22.90;31.70;;;;;;4948918;28;86414;-84
2021/04/25 16:33:58;;;;;;;55.92;53.28;;;22.80;32.10;;;;;;4949314;28;86799;-83
2021/04/25 16:36:24;;;;;;;64.45;61.30;;;22.50;32.30;;;;;;4949812;28;87462;-85
2021/04/25 16:38:52;;;;;;;56.90;54.15;;;22.40;32.10;;;;;;4931871;28;87987;-84
2021/04/25 16:41:18;;;;;;;53.28;50.60;;;22.20;32.60;;;;;;4948462;28;86965;-85
2021/04/25 16:43:43;;;;;;;59.08;55.97;;;22.20;32.80;;;;;;4947698;28;88274;-85
2021/04/25 16:46:10;;;;;;;113.15;108.30;;;22.00;33.30;;;;;;4948446;28;86968;-85
2021/04/25 16:48:36;;;;;;;119.07;113.68;;;21.80;33.60;;;;;;4946736;28;87008;-85
2021/04/25 16:51:03;;;;;;;66.85;63.72;;;21.60;34.00;;;;;;4950660;28;87004;-87
2021/04/25 16:53:30;;;;;;;50.97;48.38;;;21.50;34.30;;;;;;4947639;28;87319;-83
2021/04/25 16:55:56;;;;;;;71.45;68.18;;;21.20;34.50;;;;;;4948483;28;87961;-84
2021/04/25 16:58:22;;;;;;;59.53;56.58;;;21.00;34.80;;;;;;4926676;28;87289;-85
2021/04/25 17:00:48;;;;;;;30.35;28.52;;;20.80;35.00;;;;;;4946201;28;86894;-82
2021/04/25 17:03:14;;;;;;;18.02;16.52;;;20.70;35.10;;;;;;4948642;28;87907;-83
2021/04/25 17:05:40;;;;;;;19.33;17.70;;;20.60;34.90;;;;;;4945524;28;88048;-83
2021/04/25 17:08:06;;;;;;;15.48;14.18;;;20.50;35.10;;;;;;4945838;28;87792;-82
2021/04/25 17:10:34;;;;;;;18.63;17.17;;;20.30;35.00;;;;;;4945757;28;87156;-82
2021/04/25 17:13:00;;;;;;;24.38;22.70;;;20.20;35.50;;;;;;4951219;28;87263;-86
2021/04/25 17:15:26;;;;;;;71.70;68.32;;;20.10;35.70;;;;;;4943967;28;87204;-82
2021/04/25 17:17:52;;;;;;;127.88;122.25;;;20.00;36.50;;;;;;4952120;28;86995;-82
2021/04/25 17:20:20;;;;;;;25.23;23.45;;;19.50;36.60;;;;;;4942386;28;86322;-85
2021/04/25 17:22:46;;;;;;;22.42;20.95;;;19.60;36.80;;;;;;4941662;28;86822;-82
2021/04/25 17:25:13;;;;;;;28.65;27.05;;;19.30;38.10;;;;;;4949240;28;86779;-83
2021/04/25 17:27:39;;;;;;;31.42;29.65;;;19.30;37.90;;;;;;4921323;28;88045;-81
2021/04/25 17:30:09;;;;;;;23.35;22.05;;;19.20;38.60;;;;;;4941232;28;86962;-81
2021/04/25 17:32:35;;;;;;;15.05;13.75;;;18.80;39.00;;;;;;4928342;28;88754;-83
2021/04/25 17:35:00;;;;;;;16.10;14.95;;;18.70;39.30;;;;;;4951243;28;87228;-83
2021/04/25 17:37:26;;;;;;;32.85;30.75;;;18.40;40.00;;;;;;4950512;28;86935;-84
2021/04/25 17:39:52;;;;;;;31.45;29.75;;;18.20;40.10;;;;;;4950889;28;87993;-79
2021/04/25 17:42:18;;;;;;;23.55;22.10;;;18.20;40.60;;;;;;4959269;28;86545;-83
2021/04/25 17:44:44;;;;;;;21.90;20.40;;;;;;;;;;4962643;28;86156;-80
2021/04/25 17:47:11;;;;;;;18.60;17.30;;;17.70;41.30;;;;;;4947640;28;86138;-82
2021/04/25 17:49:38;;;;;;;20.75;19.08;;;17.70;42.10;;;;;;4951019;28;86324;-79
2021/04/25 17:52:04;;;;;;;17.67;16.40;;;17.60;41.50;;;;;;4950508;28;87869;-79
2021/04/25 17:54:31;;;;;;;21.90;20.55;;;17.40;41.40;;;;;;4953918;28;88340;-79
2021/04/25 17:56:57;;;;;;;34.58;32.58;;;16.80;40.90;;;;;;4950495;28;86540;-80
2021/04/25 17:59:23;;;;;;;64.13;60.70;;;16.90;41.80;;;;;;4948692;28;87041;-82
2021/04/25 18:01:49;;;;;;;45.53;43.40;;;17.00;42.20;;;;;;4942735;28;89172;-83
2021/04/25 18:04:15;;;;;;;25.77;24.05;;;16.80;42.50;;;;;;4930865;28;90183;-82
2021/04/25 18:06:41;;;;;;;19.08;17.52;;;16.90;43.10;;;;;;4948368;28;86676;-84
2021/04/25 18:09:07;;;;;;;20.92;19.52;;;16.60;43.00;;;;;;4949210;28;86102;-83
2021/04/25 18:11:33;;;;;;;20.65;18.98;;;16.00;44.20;;;;;;4947988;28;87200;-82
2021/04/25 18:13:59;;;;;;;17.23;15.90;;;16.50;44.60;;;;;;4932474;28;88834;-82
2021/04/25 18:16:25;;;;;;;18.38;16.85;;;16.20;44.60;;;;;;4943635;28;88125;-82
2021/04/25 18:18:50;;;;;;;19.75;18.50;;;15.70;44.60;;;;;;4950361;28;87162;-84
2021/04/25 18:21:16;;;;;;;20.92;19.63;;;;;;;;;;4948383;28;86723;-81
2021/04/25 18:23:42;;;;;;;21.52;20.08;;;15.40;44.50;;;;;;4957180;28;87351;-84
2021/04/25 18:26:08;;;;;;;24.25;22.77;;;15.40;44.90;;;;;;4955248;28;87010;-79
2021/04/25 18:28:33;;;;;;;68.05;65.03;;;15.20;44.50;;;;;;4955199;28;87273;-80
2021/04/25 18:31:00;;;;;;;64.97;61.67;;;15.30;44.70;;;;;;4957238;28;87869;-79
2021/04/25 18:33:27;;;;;;;41.80;39.58;;;15.10;45.20;;;;;;4960515;28;86290;-82
2021/04/25 18:35:53;;;;;;;29.73;27.98;;;15.00;45.50;;;;;;4954751;28;86689;-78
2021/04/25 18:38:22;;;;;;;18.83;17.67;;;15.00;45.50;;;;;;4948566;28;86651;-80
2021/04/25 18:41:06;;;;;;;17.15;15.90;;;14.80;45.80;;;;;;4921847;28;91436;-82
2021/04/25 18:43:33;;;;;;;15.25;14.00;;;14.60;45.90;;;;;;4948878;28;88314;-81
2021/04/25 18:45:58;;;;;;;14.77;13.68;;;14.90;45.90;;;;;;4928732;28;87417;-82
2021/04/25 18:48:24;;;;;;;23.33;21.52;;;14.50;45.80;;;;;;4930423;28;86854;-82
2021/04/25 18:50:50;;;;;;;21.45;20.15;;;14.30;46.30;;;;;;4942402;28;90438;-80
2021/04/25 18:53:16;;;;;;;22.25;21.05;;;14.20;46.60;;;;;;4959392;28;86927;-83
2021/04/25 18:55:43;;;;;;;20.42;19.23;;;14.10;46.40;;;;;;4951845;28;86986;-81
2021/04/25 18:58:10;;;;;;;21.08;19.77;;;14.00;46.40;;;;;;4954676;28;86089;-84
2021/04/25 19:00:51;;;;;;;22.13;20.73;;;14.20;46.90;;;;;;4953535;28;86944;-80
2021/04/25 19:03:21;;;;;;;17.17;16.02;;;13.90;46.40;;;;;;4953198;28;87035;-82
2021/04/25 19:05:47;;;;;;;19.60;18.23;;;14.00;47.00;;;;;;4953914;28;87951;-84
2021/04/25 19:08:14;;;;;;;16.83;15.73;;;14.20;47.30;;;;;;4951217;28;87327;-83